sensor_id;sensor_type;location;lat;lon;timestamp;pressure;altitude;pressure_sealevel;temperature;humidity
72061;BME280;59925;52.136;5.420;2023-05-08T00:01:18;102235.13;;;12.13;95.21
72061;BME280;59925;52.136;5.420;2023-05-08T00:03:45;102238.41;;;12.15;95.16
72061;BME280;59925;52.136;5.420;2023-05-08T00:06:11;102241.91;;;12.15;94.95
72061;BME280;59925;52.136;5.420;2023-05-08T00:08:38;102239.19;;;12.15;94.65
72061;BME280;59925;52.136;5.420;2023-05-08T00:11:04;102241.56;;;12.11;94.63
72061;BME280;59925;52.136;5.420;2023-05-08T00:13:31;102241.56;;;12.11;94.99
72061;BME280;59925;52.136;5.420;2023-05-08T00:15:57;102237.25;;;12.10;94.97
72061;BME280;59925;52.136;5.420;2023-05-08T00:18:24;102228.31;;;12.05;95.01
72061;BME280;59925;52.136;5.420;2023-05-08T00:20:51;102226.34;;;12.00;94.86
72061;BME280;59925;52.136;5.420;2023-05-08T00:23:18;102227.41;;;11.99;95.22
72061;BME280;59925;52.136;5.420;2023-05-08T00:25:47;102221.44;;;11.97;95.00
72061;BME280;59925;52.136;5.420;2023-05-08T00:28:13;102217.94;;;11.96;95.19
72061;BME280;59925;52.136;5.420;2023-05-08T00:30:40;102213.38;;;11.97;94.83
72061;BME280;59925;52.136;5.420;2023-05-08T00:33:06;102219.78;;;11.96;94.76
72061;BME280;59925;52.136;5.420;2023-05-08T00:35:33;102216.31;;;11.95;94.55
72061;BME280;59925;52.136;5.420;2023-05-08T00:37:59;102217.38;;;11.94;94.60
72061;BME280;59925;52.136;5.420;2023-05-08T00:40:26;102219.22;;;11.94;94.42
72061;BME280;59925;52.136;5.420;2023-05-08T00:42:53;102221.69;;;11.95;94.35
72061;BME280;59925;52.136;5.420;2023-05-08T00:45:19;102217.38;;;11.94;94.50
72061;BME280;59925;52.136;5.420;2023-05-08T00:47:46;102210.59;;;11.92;94.71
72061;BME280;59925;52.136;5.420;2023-05-08T00:50:12;102214.34;;;11.91;94.50
72061;BME280;59925;52.136;5.420;2023-05-08T00:52:39;102214.84;;;11.88;94.71
72061;BME280;59925;52.136;5.420;2023-05-08T00:55:07;102211.00;;;11.84;94.66
72061;BME280;59925;52.136;5.420;2023-05-08T00:57:34;102213.94;;;11.82;94.82
72061;BME280;59925;52.136;5.420;2023-05-08T01:00:03;102220.13;;;11.83;94.83
72061;BME280;59925;52.136;5.420;2023-05-08T01:02:30;102215.22;;;11.79;94.74
72061;BME280;59925;52.136;5.420;2023-05-08T01:04:57;102223.44;;;11.73;94.91
72061;BME280;59925;52.136;5.420;2023-05-08T01:07:26;102219.22;;;11.60;95.07
72061;BME280;59925;52.136;5.420;2023-05-08T01:09:52;102223.59;;;11.49;95.14
72061;BME280;59925;52.136;5.420;2023-05-08T01:12:33;102222.94;;;11.42;95.35
72061;BME280;59925;52.136;5.420;2023-05-08T01:15:13;102220.47;;;11.40;95.60
72061;BME280;59925;52.136;5.420;2023-05-08T01:20:38;102220.47;;;11.40;95.71
72061;BME280;59925;52.136;5.420;2023-05-08T01:34:42;102218.06;;;11.27;95.89
72061;BME280;59925;52.136;5.420;2023-05-08T01:37:20;102227.69;;;11.23;95.64
72061;BME280;59925;52.136;5.420;2023-05-08T01:40:07;102226.53;;;11.18;96.05
72061;BME280;59925;52.136;5.420;2023-05-08T01:42:47;102230.97;;;11.13;95.73
72061;BME280;59925;52.136;5.420;2023-05-08T01:45:37;102235.19;;;11.09;95.76
72061;BME280;59925;52.136;5.420;2023-05-08T01:48:07;102222.00;;;11.07;95.89
72061;BME280;59925;52.136;5.420;2023-05-08T01:50:43;102232.75;;;11.07;95.89
72061;BME280;59925;52.136;5.420;2023-05-08T01:53:22;102229.81;;;11.09;95.75
72061;BME280;59925;52.136;5.420;2023-05-08T01:55:53;102228.53;;;11.11;95.82
72061;BME280;59925;52.136;5.420;2023-05-08T01:58:23;102226.09;;;11.10;95.80
72061;BME280;59925;52.136;5.420;2023-05-08T02:00:51;102233.81;;;11.06;95.92
72061;BME280;59925;52.136;5.420;2023-05-08T02:03:19;102237.78;;;11.03;95.79
72061;BME280;59925;52.136;5.420;2023-05-08T02:05:47;102237.91;;;10.97;95.95
72061;BME280;59925;52.136;5.420;2023-05-08T02:08:17;102238.13;;;10.95;96.12
72061;BME280;59925;52.136;5.420;2023-05-08T02:10:48;102242.91;;;10.93;95.90
72061;BME280;59925;52.136;5.420;2023-05-08T02:13:17;102236.75;;;10.93;96.01
72061;BME280;59925;52.136;5.420;2023-05-08T02:15:49;102239.19;;;10.94;95.65
72061;BME280;59925;52.136;5.420;2023-05-08T02:18:19;102237.66;;;10.98;96.04
72061;BME280;59925;52.136;5.420;2023-05-08T02:20:49;102244.66;;;10.99;95.76
72061;BME280;59925;52.136;5.420;2023-05-08T02:23:17;102240.09;;;11.00;96.10
72061;BME280;59925;52.136;5.420;2023-05-08T02:25:45;102234.53;;;11.01;96.07
72061;BME280;59925;52.136;5.420;2023-05-08T02:28:14;102237.78;;;11.03;96.27
72061;BME280;59925;52.136;5.420;2023-05-08T02:30:42;102247.22;;;11.06;96.08
72061;BME280;59925;52.136;5.420;2023-05-08T02:33:11;102244.78;;;11.04;96.15
72061;BME280;59925;52.136;5.420;2023-05-08T02:35:41;102249.31;;;11.04;96.48
72061;BME280;59925;52.136;5.420;2023-05-08T02:38:10;102254.69;;;11.04;96.24
72061;BME280;59925;52.136;5.420;2023-05-08T02:40:43;102253.63;;;11.05;96.24
72061;BME280;59925;52.136;5.420;2023-05-08T02:43:10;102248.03;;;11.07;96.21
72061;BME280;59925;52.136;5.420;2023-05-08T02:45:45;102252.59;;;11.06;96.12
72061;BME280;59925;52.136;5.420;2023-05-08T02:48:21;102245.59;;;11.05;96.38
72061;BME280;59925;52.136;5.420;2023-05-08T02:50:59;102245.59;;;11.05;96.38
72061;BME280;59925;52.136;5.420;2023-05-08T02:53:35;102247.22;;;11.06;96.45
72061;BME280;59925;52.136;5.420;2023-05-08T02:56:10;102237.91;;;10.97;96.50
72061;BME280;59925;52.136;5.420;2023-05-08T02:58:45;102237.81;;;10.92;96.91
72061;BME280;59925;52.136;5.420;2023-05-08T03:01:27;102241.53;;;10.91;97.18
72061;BME280;59925;52.136;5.420;2023-05-08T03:04:01;102245.28;;;10.89;96.97
72061;BME280;59925;52.136;5.420;2023-05-08T03:06:35;102238.06;;;10.90;97.20
72061;BME280;59925;52.136;5.420;2023-05-08T03:09:03;102239.69;;;10.91;97.12
72061;BME280;59925;52.136;5.420;2023-05-08T03:11:38;102233.03;;;10.94;96.98
72061;BME280;59925;52.136;5.420;2023-05-08T03:14:09;102233.03;;;10.94;97.35
72061;BME280;59925;52.136;5.420;2023-05-08T03:16:38;102226.59;;;10.95;97.67
72061;BME280;59925;52.136;5.420;2023-05-08T03:19:11;102234.06;;;10.93;97.33
72061;BME280;59925;52.136;5.420;2023-05-08T03:21:41;102226.03;;;10.93;97.33
72061;BME280;59925;52.136;5.420;2023-05-08T03:24:09;102223.59;;;10.91;97.38
72061;BME280;59925;52.136;5.420;2023-05-08T03:26:36;102222.19;;;10.88;97.70
72061;BME280;59925;52.136;5.420;2023-05-08T03:29:04;102232.91;;;10.88;97.95
72061;BME280;59925;52.136;5.420;2023-05-08T03:31:31;102235.59;;;10.88;97.77
72061;BME280;59925;52.136;5.420;2023-05-08T03:33:59;102233.38;;;10.85;97.59
72061;BME280;59925;52.136;5.420;2023-05-08T03:36:27;102233.75;;;10.77;97.60
72061;BME280;59925;52.136;5.420;2023-05-08T03:38:55;102234.47;;;10.72;97.61
72061;BME280;59925;52.136;5.420;2023-05-08T03:41:24;102231.19;;;10.70;97.41
72061;BME280;59925;52.136;5.420;2023-05-08T03:43:51;102231.91;;;10.66;97.05
72061;BME280;59925;52.136;5.420;2023-05-08T03:46:18;102222.22;;;10.65;97.29
72061;BME280;59925;52.136;5.420;2023-05-08T03:48:48;102228.63;;;10.64;97.27
72061;BME280;59925;52.136;5.420;2023-05-08T03:51:16;102228.63;;;10.64;97.26
72061;BME280;59925;52.136;5.420;2023-05-08T03:53:42;102219.22;;;10.61;97.24
72061;BME280;59925;52.136;5.420;2023-05-08T03:56:09;102220.25;;;10.60;97.40
72061;BME280;59925;52.136;5.420;2023-05-08T04:04:10;102224.34;;;10.51;97.21
72061;BME280;59925;52.136;5.420;2023-05-08T04:06:50;102227.97;;;10.45;97.11
72061;BME280;59925;52.136;5.420;2023-05-08T04:09:26;102230.75;;;10.38;96.78
72061;BME280;59925;52.136;5.420;2023-05-08T04:12:17;102231.09;;;10.30;97.00
72061;BME280;59925;52.136;5.420;2023-05-08T04:14:52;102232.94;;;10.29;96.79
72061;BME280;59925;52.136;5.420;2023-05-08T04:17:36;102230.50;;;10.27;96.75
72061;BME280;59925;52.136;5.420;2023-05-08T04:20:05;102238.53;;;10.27;96.64
72061;BME280;59925;52.136;5.420;2023-05-08T04:22:33;102241.44;;;10.26;96.89
72061;BME280;59925;52.136;5.420;2023-05-08T04:25:02;102235.88;;;10.27;97.04
72061;BME280;59925;52.136;5.420;2023-05-08T04:27:32;102240.41;;;10.27;96.55
72061;BME280;59925;52.136;5.420;2023-05-08T04:29:59;102241.81;;;10.30;96.86
72061;BME280;59925;52.136;5.420;2023-05-08T04:32:27;102244.72;;;10.28;97.13
72061;BME280;59925;52.136;5.420;2023-05-08T04:34:54;102239.13;;;10.30;96.93
72061;BME280;59925;52.136;5.420;2023-05-08T04:39:50;102240.66;;;10.37;96.92
72061;BME280;59925;52.136;5.420;2023-05-08T04:42:16;102243.13;;;10.39;96.85
72061;BME280;59925;52.136;5.420;2023-05-08T04:44:43;102244.75;;;10.40;96.75
72061;BME280;59925;52.136;5.420;2023-05-08T04:47:09;102245.94;;;10.44;97.07
72061;BME280;59925;52.136;5.420;2023-05-08T04:49:36;102248.69;;;10.49;97.00
72061;BME280;59925;52.136;5.420;2023-05-08T04:52:02;102250.81;;;10.59;97.16
72061;BME280;59925;52.136;5.420;2023-05-08T04:54:29;102245.06;;;10.67;96.94
72061;BME280;59925;52.136;5.420;2023-05-08T04:56:56;102255.09;;;10.72;96.79
72061;BME280;59925;52.136;5.420;2023-05-08T04:59:22;102251.94;;;10.75;96.80
72061;BME280;59925;52.136;5.420;2023-05-08T05:01:50;102261.63;;;10.76;96.53
72061;BME280;59925;52.136;5.420;2023-05-08T05:04:16;102259.66;;;10.83;97.23
72061;BME280;59925;52.136;5.420;2023-05-08T05:06:43;102260.91;;;10.93;97.29
72061;BME280;59925;52.136;5.420;2023-05-08T05:09:10;102264.84;;;11.02;97.36
72061;BME280;59925;52.136;5.420;2023-05-08T05:11:37;102264.13;;;11.07;97.11
72061;BME280;59925;52.136;5.420;2023-05-08T05:14:03;102266.66;;;11.25;97.71
72061;BME280;59925;52.136;5.420;2023-05-08T05:16:29;102271.88;;;11.61;97.95
72061;BME280;59925;52.136;5.420;2023-05-08T05:18:56;102270.25;;;12.23;97.51
72061;BME280;59925;52.136;5.420;2023-05-08T05:21:23;102269.34;;;12.73;96.13
72061;BME280;59925;52.136;5.420;2023-05-08T05:23:49;102277.63;;;13.33;94.39
72061;BME280;59925;52.136;5.420;2023-05-08T05:26:16;102273.72;;;13.46;92.05
72061;BME280;59925;52.136;5.420;2023-05-08T05:28:42;102283.13;;;14.04;90.28
72061;BME280;59925;52.136;5.420;2023-05-08T05:31:09;102276.84;;;13.60;89.01
72061;BME280;59925;52.136;5.420;2023-05-08T05:33:35;102276.94;;;13.21;89.72
72061;BME280;59925;52.136;5.420;2023-05-08T05:36:02;102275.81;;;12.95;90.63
72061;BME280;59925;52.136;5.420;2023-05-08T05:38:29;102276.66;;;12.78;91.42
72061;BME280;59925;52.136;5.420;2023-05-08T05:40:55;102281.50;;;12.76;92.22
72061;BME280;59925;52.136;5.420;2023-05-08T05:43:22;102273.97;;;12.78;92.78
72061;BME280;59925;52.136;5.420;2023-05-08T05:45:48;102280.56;;;12.87;93.40
72061;BME280;59925;52.136;5.420;2023-05-08T05:48:15;102280.78;;;13.03;93.44
72061;BME280;59925;52.136;5.420;2023-05-08T05:50:41;102281.19;;;13.17;93.51
72061;BME280;59925;52.136;5.420;2023-05-08T05:53:08;102287.44;;;13.23;93.74
72061;BME280;59925;52.136;5.420;2023-05-08T05:55:35;102285.63;;;13.28;93.94
72061;BME280;59925;52.136;5.420;2023-05-08T05:58:01;102292.41;;;13.81;94.51
72061;BME280;59925;52.136;5.420;2023-05-08T06:00:28;102291.84;;;14.11;93.11
72061;BME280;59925;52.136;5.420;2023-05-08T06:02:56;102294.13;;;14.30;91.98
72061;BME280;59925;52.136;5.420;2023-05-08T06:05:23;102296.06;;;14.77;92.31
72061;BME280;59925;52.136;5.420;2023-05-08T06:07:49;102288.78;;;15.46;90.12
72061;BME280;59925;52.136;5.420;2023-05-08T06:10:16;102287.22;;;16.23;89.61
72061;BME280;59925;52.136;5.420;2023-05-08T06:12:43;102282.31;;;16.35;86.08
72061;BME280;59925;52.136;5.420;2023-05-08T06:15:09;102288.31;;;16.12;86.04
72061;BME280;59925;52.136;5.420;2023-05-08T06:17:37;102293.72;;;15.86;86.74
72061;BME280;59925;52.136;5.420;2023-05-08T06:20:04;102288.56;;;16.31;88.27
72061;BME280;59925;52.136;5.420;2023-05-08T06:22:31;102293.09;;;16.66;85.10
72061;BME280;59925;52.136;5.420;2023-05-08T06:24:58;102290.97;;;16.48;84.22
72061;BME280;59925;52.136;5.420;2023-05-08T06:27:25;102284.50;;;16.38;85.36
72061;BME280;59925;52.136;5.420;2023-05-08T06:29:51;102292.09;;;16.11;83.98
72061;BME280;59925;52.136;5.420;2023-05-08T06:32:19;102294.47;;;15.71;85.07
72061;BME280;59925;52.136;5.420;2023-05-08T06:34:46;102300.13;;;15.64;85.51
72061;BME280;59925;52.136;5.420;2023-05-08T06:37:14;102300.41;;;15.57;86.22
72061;BME280;59925;52.136;5.420;2023-05-08T06:39:41;102299.59;;;15.62;86.80
72061;BME280;59925;52.136;5.420;2023-05-08T06:42:07;102301.97;;;15.43;86.92
72061;BME280;59925;52.136;5.420;2023-05-08T06:44:34;102311.47;;;15.45;86.83
72061;BME280;59925;52.136;5.420;2023-05-08T06:47:01;102301.22;;;15.47;86.13
72061;BME280;59925;52.136;5.420;2023-05-08T06:49:28;102297.69;;;15.57;86.63
72061;BME280;59925;52.136;5.420;2023-05-08T06:51:54;102303.13;;;15.68;86.95
72061;BME280;59925;52.136;5.420;2023-05-08T06:54:23;102302.06;;;15.74;86.14
72061;BME280;59925;52.136;5.420;2023-05-08T06:56:51;102299.94;;;15.97;86.17
72061;BME280;59925;52.136;5.420;2023-05-08T06:59:18;102295.84;;;16.15;86.69
72061;BME280;59925;52.136;5.420;2023-05-08T07:01:45;102298.00;;;16.28;85.78
72061;BME280;59925;52.136;5.420;2023-05-08T07:04:12;102296.09;;;16.49;85.46
72061;BME280;59925;52.136;5.420;2023-05-08T07:06:39;102301.47;;;16.65;85.62
72061;BME280;59925;52.136;5.420;2023-05-08T07:09:06;102306.34;;;16.68;84.77
72061;BME280;59925;52.136;5.420;2023-05-08T07:11:32;102304.97;;;16.76;85.29
72061;BME280;59925;52.136;5.420;2023-05-08T07:13:59;102304.38;;;16.84;84.86
72061;BME280;59925;52.136;5.420;2023-05-08T07:16:25;102300.38;;;16.71;83.73
72061;BME280;59925;52.136;5.420;2023-05-08T07:18:52;102298.78;;;16.54;84.68
72061;BME280;59925;52.136;5.420;2023-05-08T07:21:18;102305.78;;;16.76;84.79
72061;BME280;59925;52.136;5.420;2023-05-08T07:23:46;102303.59;;;16.78;84.50
72061;BME280;59925;52.136;5.420;2023-05-08T07:26:16;102307.69;;;16.70;85.00
72061;BME280;59925;52.136;5.420;2023-05-08T07:28:42;102311.50;;;16.64;85.65
72061;BME280;59925;52.136;5.420;2023-05-08T07:31:09;102299.09;;;16.53;85.99
72061;BME280;59925;52.136;5.420;2023-05-08T07:33:35;102304.25;;;16.44;86.27
72061;BME280;59925;52.136;5.420;2023-05-08T07:36:02;102304.50;;;16.43;86.89
72061;BME280;59925;52.136;5.420;2023-05-08T07:38:29;102303.44;;;16.38;86.98
72061;BME280;59925;52.136;5.420;2023-05-08T07:40:56;102290.44;;;16.35;87.53
72061;BME280;59925;52.136;5.420;2023-05-08T07:43:23;102293.69;;;16.37;88.01
72061;BME280;59925;52.136;5.420;2023-05-08T07:45:49;102290.97;;;16.37;87.77
72061;BME280;59925;52.136;5.420;2023-05-08T07:48:16;102287.44;;;16.37;88.29
72061;BME280;59925;52.136;5.420;2023-05-08T07:50:43;102290.16;;;16.42;88.12
72061;BME280;59925;52.136;5.420;2023-05-08T07:53:10;102295.31;;;16.33;88.09
72061;BME280;59925;52.136;5.420;2023-05-08T07:55:36;102296.94;;;16.34;88.47
72061;BME280;59925;52.136;5.420;2023-05-08T07:58:02;102298.50;;;16.56;89.22
72061;BME280;59925;52.136;5.420;2023-05-08T08:00:29;102299.28;;;16.77;88.74
72061;BME280;59925;52.136;5.420;2023-05-08T08:02:56;102297.34;;;16.88;88.12
72061;BME280;59925;52.136;5.420;2023-05-08T08:05:23;102301.69;;;16.84;87.59
72061;BME280;59925;52.136;5.420;2023-05-08T08:07:49;102301.44;;;16.75;86.76
72061;BME280;59925;52.136;5.420;2023-05-08T08:10:16;102294.13;;;16.76;87.08
72061;BME280;59925;52.136;5.420;2023-05-08T08:12:43;102298.72;;;16.85;86.96
72061;BME280;59925;52.136;5.420;2023-05-08T08:15:09;102296.78;;;16.96;87.22
72061;BME280;59925;52.136;5.420;2023-05-08T08:17:36;102307.63;;;17.02;87.04
72061;BME280;59925;52.136;5.420;2023-05-08T08:20:03;102309.25;;;17.03;87.34
72061;BME280;59925;52.136;5.420;2023-05-08T08:22:30;102314.13;;;17.06;86.53
72061;BME280;59925;52.136;5.420;2023-05-08T08:24:56;102300.59;;;16.90;86.26
72061;BME280;59925;52.136;5.420;2023-05-08T08:27:23;102309.00;;;16.99;86.69
72061;BME280;59925;52.136;5.420;2023-05-08T08:29:49;102304.38;;;17.05;86.76
72061;BME280;59925;52.136;5.420;2023-05-08T08:32:24;102299.72;;;17.10;86.23
72061;BME280;59925;52.136;5.420;2023-05-08T08:34:50;102297.88;;;16.95;86.09
72061;BME280;59925;52.136;5.420;2023-05-08T08:37:17;102300.88;;;16.83;86.30
72061;BME280;59925;52.136;5.420;2023-05-08T08:39:43;102295.94;;;17.01;86.91
72061;BME280;59925;52.136;5.420;2023-05-08T08:42:10;102290.75;;;17.15;86.47
72061;BME280;59925;52.136;5.420;2023-05-08T08:44:37;102288.28;;;17.24;86.37
72061;BME280;59925;52.136;5.420;2023-05-08T08:47:06;102283.88;;;17.33;85.85
72061;BME280;59925;52.136;5.420;2023-05-08T08:49:41;102285.19;;;17.41;85.17
72061;BME280;59925;52.136;5.420;2023-05-08T08:52:21;102284.25;;;17.61;85.64
72061;BME280;59925;52.136;5.420;2023-05-08T08:54:50;102289.16;;;17.93;86.06
72061;BME280;59925;52.136;5.420;2023-05-08T08:57:18;102292.81;;;18.13;84.85
72061;BME280;59925;52.136;5.420;2023-05-08T08:59:45;102292.47;;;18.20;83.75
72061;BME280;59925;52.136;5.420;2023-05-08T09:02:12;102296.00;;;18.20;83.32
72061;BME280;59925;52.136;5.420;2023-05-08T09:04:43;102298.72;;;18.20;82.50
72061;BME280;59925;52.136;5.420;2023-05-08T09:07:10;102295.63;;;18.32;83.68
72061;BME280;59925;52.136;5.420;2023-05-08T09:09:39;102299.53;;;18.50;82.72
72061;BME280;59925;52.136;5.420;2023-05-08T09:12:11;102302.28;;;18.45;82.22
72061;BME280;59925;52.136;5.420;2023-05-08T09:14:38;102297.94;;;18.44;80.93
72061;BME280;59925;52.136;5.420;2023-05-08T09:17:04;102285.38;;;18.24;80.57
72061;BME280;59925;52.136;5.420;2023-05-08T09:19:32;102295.00;;;18.41;80.34
72061;BME280;59925;52.136;5.420;2023-05-08T09:21:59;102292.09;;;18.80;80.57
72061;BME280;59925;52.136;5.420;2023-05-08T09:27:23;102300.72;;;18.88;79.39
72061;BME280;59925;52.136;5.420;2023-05-08T09:30:06;102289.41;;;19.05;80.31
72061;BME280;59925;52.136;5.420;2023-05-08T09:32:36;102298.66;;;19.23;79.18
72061;BME280;59925;52.136;5.420;2023-05-08T09:35:04;102296.84;;;19.37;79.15
72061;BME280;59925;52.136;5.420;2023-05-08T09:37:31;102300.44;;;19.52;78.19
72061;BME280;59925;52.136;5.420;2023-05-08T09:40:25;102287.91;;;19.37;76.63
72061;BME280;59925;52.136;5.420;2023-05-08T09:42:51;102292.28;;;19.52;76.84
72061;BME280;59925;52.136;5.420;2023-05-08T09:45:28;102288.78;;;19.51;75.90
72061;BME280;59925;52.136;5.420;2023-05-08T09:47:55;102292.63;;;19.64;77.01
72061;BME280;59925;52.136;5.420;2023-05-08T09:50:22;102287.78;;;20.13;76.41
72061;BME280;59925;52.136;5.420;2023-05-08T09:52:50;102285.41;;;20.40;75.31
72061;BME280;59925;52.136;5.420;2023-05-08T09:55:17;102288.81;;;20.31;75.38
72061;BME280;59925;52.136;5.420;2023-05-08T09:57:56;102289.13;;;20.30;74.61
72061;BME280;59925;52.136;5.420;2023-05-08T10:00:25;102294.97;;;20.37;74.90
72061;BME280;59925;52.136;5.420;2023-05-08T10:02:57;102293.63;;;20.20;74.34
72061;BME280;59925;52.136;5.420;2023-05-08T10:07:51;102292.25;;;20.37;74.77
72061;BME280;59925;52.136;5.420;2023-05-08T10:10:25;102288.81;;;20.45;74.51
72061;BME280;59925;52.136;5.420;2023-05-08T10:12:53;102291.97;;;20.52;73.18
72061;BME280;59925;52.136;5.420;2023-05-08T10:15:23;102296.94;;;20.78;74.47
72061;BME280;59925;52.136;5.420;2023-05-08T10:17:58;102300.56;;;21.02;75.24
72061;BME280;59925;52.136;5.420;2023-05-08T10:20:28;102300.75;;;21.05;72.64
72061;BME280;59925;52.136;5.420;2023-05-08T10:22:57;102293.88;;;20.66;72.69
72061;BME280;59925;52.136;5.420;2023-05-08T10:25:24;102293.59;;;20.54;73.47
72061;BME280;59925;52.136;5.420;2023-05-08T10:28:00;102294.06;;;20.42;74.72
72061;BME280;59925;52.136;5.420;2023-05-08T10:30:30;102295.22;;;20.55;74.85
72061;BME280;59925;52.136;5.420;2023-05-08T10:33:01;102286.50;;;20.39;73.46
72061;BME280;59925;52.136;5.420;2023-05-08T10:35:28;102295.56;;;20.20;73.58
72061;BME280;59925;52.136;5.420;2023-05-08T10:37:57;102284.97;;;20.18;73.82
72061;BME280;59925;52.136;5.420;2023-05-08T10:40:24;102287.28;;;20.25;74.06
72061;BME280;59925;52.136;5.420;2023-05-08T10:42:51;102293.03;;;20.24;73.90
72061;BME280;59925;52.136;5.420;2023-05-08T10:45:17;102289.84;;;20.49;72.95
72061;BME280;59925;52.136;5.420;2023-05-08T10:47:49;102291.38;;;20.70;71.48
72061;BME280;59925;52.136;5.420;2023-05-08T10:50:33;102294.41;;;20.96;72.00
72061;BME280;59925;52.136;5.420;2023-05-08T10:53:12;102295.94;;;21.25;69.90
72061;BME280;59925;52.136;5.420;2023-05-08T10:55:44;102290.81;;;21.60;71.07
72061;BME280;59925;52.136;5.420;2023-05-08T10:58:27;102292.50;;;21.33;68.84
72061;BME280;59925;52.136;5.420;2023-05-08T11:03:44;102290.91;;;21.55;67.95
72061;BME280;59925;52.136;5.420;2023-05-08T11:06:11;102293.72;;;21.27;67.49
72061;BME280;59925;52.136;5.420;2023-05-08T11:08:49;102288.50;;;21.17;69.48
72061;BME280;59925;52.136;5.420;2023-05-08T11:13:54;102290.16;;;21.04;68.90
72061;BME280;59925;52.136;5.420;2023-05-08T11:19:23;102275.63;;;20.94;68.74
72061;BME280;59925;52.136;5.420;2023-05-08T11:24:37;102277.53;;;20.66;69.58
72061;BME280;59925;52.136;5.420;2023-05-08T11:27:03;102268.97;;;20.87;69.80
72061;BME280;59925;52.136;5.420;2023-05-08T11:29:30;102271.00;;;20.95;70.47
72061;BME280;59925;52.136;5.420;2023-05-08T11:31:56;102264.84;;;20.89;69.32
72061;BME280;59925;52.136;5.420;2023-05-08T11:34:52;102266.09;;;21.06;68.60
72061;BME280;59925;52.136;5.420;2023-05-08T11:37:21;102261.25;;;21.17;67.71
72061;BME280;59925;52.136;5.420;2023-05-08T11:39:49;102258.28;;;21.27;68.05
72061;BME280;59925;52.136;5.420;2023-05-08T11:45:12;102251.59;;;21.79;69.45
72061;BME280;59925;52.136;5.420;2023-05-08T11:47:41;102254.63;;;22.00;67.89
72061;BME280;59925;52.136;5.420;2023-05-08T11:50:09;102247.03;;;21.88;67.28
72061;BME280;59925;52.136;5.420;2023-05-08T11:52:38;102248.25;;;22.13;67.91
72061;BME280;59925;52.136;5.420;2023-05-08T11:55:09;102247.97;;;22.24;65.55
72061;BME280;59925;52.136;5.420;2023-05-08T11:57:36;102251.81;;;22.14;67.42
72061;BME280;59925;52.136;5.420;2023-05-08T12:00:04;102244.09;;;21.84;65.28
72061;BME280;59925;52.136;5.420;2023-05-08T12:02:38;102253.06;;;21.39;65.93
72061;BME280;59925;52.136;5.420;2023-05-08T12:05:07;102245.13;;;21.29;66.35
72061;BME280;59925;52.136;5.420;2023-05-08T12:07:44;102253.09;;;21.03;67.73
72061;BME280;59925;52.136;5.420;2023-05-08T12:12:42;102238.69;;;21.93;66.64
72061;BME280;59925;52.136;5.420;2023-05-08T12:15:12;102242.78;;;22.13;65.90
72061;BME280;59925;52.136;5.420;2023-05-08T12:17:40;102253.69;;;22.04;65.04
72061;BME280;59925;52.136;5.420;2023-05-08T12:20:17;102248.03;;;21.69;65.68
72061;BME280;59925;52.136;5.420;2023-05-08T12:22:51;102229.59;;;21.52;66.01
72061;BME280;59925;52.136;5.420;2023-05-08T12:25:18;102234.34;;;21.92;66.90
72061;BME280;59925;52.136;5.420;2023-05-08T12:27:45;102236.13;;;22.37;64.57
72061;BME280;59925;52.136;5.420;2023-05-08T12:30:13;102235.63;;;22.75;64.51
72061;BME280;59925;52.136;5.420;2023-05-08T12:32:41;102238.56;;;23.14;62.38
72061;BME280;59925;52.136;5.420;2023-05-08T12:35:09;102238.69;;;22.83;62.38
72061;BME280;59925;52.136;5.420;2023-05-08T12:37:36;102233.66;;;22.49;61.89
72061;BME280;59925;52.136;5.420;2023-05-08T12:40:04;102239.16;;;22.27;63.24
72061;BME280;59925;52.136;5.420;2023-05-08T12:42:44;102233.00;;;22.12;63.25
72061;BME280;59925;52.136;5.420;2023-05-08T12:47:50;102227.75;;;22.74;59.78
72061;BME280;59925;52.136;5.420;2023-05-08T12:50:18;102219.69;;;22.77;60.54
72061;BME280;59925;52.136;5.420;2023-05-08T12:52:48;102218.75;;;22.73;60.59
72061;BME280;59925;52.136;5.420;2023-05-08T12:55:28;102209.13;;;23.20;58.78
72061;BME280;59925;52.136;5.420;2023-05-08T13:00:45;102201.25;;;23.27;58.25
72061;BME280;59925;52.136;5.420;2023-05-08T13:03:23;102206.19;;;22.90;57.88
72061;BME280;59925;52.136;5.420;2023-05-08T13:05:55;102198.47;;;22.65;57.45
72061;BME280;59925;52.136;5.420;2023-05-08T13:08:35;102197.81;;;22.60;59.92
72061;BME280;59925;52.136;5.420;2023-05-08T13:11:04;102188.66;;;22.64;60.46
72061;BME280;59925;52.136;5.420;2023-05-08T13:13:33;102189.88;;;22.41;59.56
72061;BME280;59925;52.136;5.420;2023-05-08T13:16:04;102193.19;;;22.20;59.56
72061;BME280;59925;52.136;5.420;2023-05-08T13:18:32;102189.97;;;22.18;60.50
72061;BME280;59925;52.136;5.420;2023-05-08T13:21:01;102191.97;;;21.95;60.53
72061;BME280;59925;52.136;5.420;2023-05-08T13:23:29;102196.50;;;21.99;61.39
72061;BME280;59925;52.136;5.420;2023-05-08T13:25:55;102189.25;;;21.95;61.78
72061;BME280;59925;52.136;5.420;2023-05-08T13:28:22;102185.88;;;21.98;61.01
72061;BME280;59925;52.136;5.420;2023-05-08T13:30:48;102185.13;;;22.06;61.27
72061;BME280;59925;52.136;5.420;2023-05-08T13:33:15;102190.66;;;22.32;61.76
72061;BME280;59925;52.136;5.420;2023-05-08T13:35:41;102189.66;;;22.19;60.61
72061;BME280;59925;52.136;5.420;2023-05-08T13:38:08;102185.69;;;21.94;61.25
72061;BME280;59925;52.136;5.420;2023-05-08T13:40:34;102180.97;;;21.77;61.94
72061;BME280;59925;52.136;5.420;2023-05-08T13:43:01;102177.91;;;21.70;61.67
72061;BME280;59925;52.136;5.420;2023-05-08T13:45:27;102184.03;;;21.76;62.36
72061;BME280;59925;52.136;5.420;2023-05-08T13:47:54;102179.56;;;21.88;62.51
72061;BME280;59925;52.136;5.420;2023-05-08T13:50:20;102178.13;;;21.59;61.86